UKKK/IEV METAR and TAF weather

Enter ICAO airport designator
Station Type Date Time Source
UKKK METAR 2019/10/22 16:30 UTC NOAA

UKKK 221630Z 10002MPS 4200 BR NSC 10/10 Q1024 R08/CLRD70 TEMPO 2000 BR


Station Type Date Time Source
UKKK Decoded METAR 2019/10/22 16:30 UTC NOAA

Kyiv, Ukraine (UKKK) 50-24N 030-34E 167M
Oct 22, 2019 - 12:30 PM EDT / 2019.10.22 1630 UTC
Wind: from the E (100 degrees) at 4 MPH (4 KT):0
Visibility: 2 mile(s):0
Weather: mist
Temperature: 50 F (10 C)
Dew Point: 50 F (10 C)
Relative Humidity: 100%
Pressure (altimeter): 30.24 in. Hg (1024 hPa)
ob: UKKK 221630Z 10002MPS 4200 BR NSC 10/10 Q1024 R08/CLRD70 TEMPO 2000 BR
cycle: 16

Station Type Date Time Source
UKKK TAF 2019/10/22 12:12 UTC NOAA

TAF TAF UKKK 221101Z 2212/2312 24003MPS 4000 BR SCT007
TEMPO 2212/2215 VRB01MPS 1000 BR BKN003
BECMG 2215/2217 0300 FG VV002
TEMPO 2217/2308 VRB01MPS 1500 -DZ BR OVC004
BECMG 2308/2310 5000 BR SCT007

Example: see airport list